sensor_id;sensor_type;location;lat;lon;timestamp;P1;durP1;ratioP1;P2;durP2;ratioP2
17253;SDS011;32542;52.832;13.816;2023-04-15T00:01:47;5.90;;;2.85;;
17253;SDS011;32542;52.832;13.816;2023-04-15T00:04:50;5.85;;;3.22;;
17253;SDS011;32542;52.832;13.816;2023-04-15T00:07:55;5.35;;;2.95;;
17253;SDS011;32542;52.832;13.816;2023-04-15T00:10:58;4.75;;;2.67;;
17253;SDS011;32542;52.832;13.816;2023-04-15T00:14:03;5.40;;;2.72;;
17253;SDS011;32542;52.832;13.816;2023-04-15T00:17:06;5.07;;;2.63;;
17253;SDS011;32542;52.832;13.816;2023-04-15T00:20:09;3.63;;;2.70;;
17253;SDS011;32542;52.832;13.816;2023-04-15T00:23:14;4.10;;;3.17;;
17253;SDS011;32542;52.832;13.816;2023-04-15T00:26:17;5.03;;;3.33;;
17253;SDS011;32542;52.832;13.816;2023-04-15T00:29:22;5.18;;;3.40;;
17253;SDS011;32542;52.832;13.816;2023-04-15T00:32:26;3.75;;;2.97;;
17253;SDS011;32542;52.832;13.816;2023-04-15T00:35:29;5.90;;;3.00;;
17253;SDS011;32542;52.832;13.816;2023-04-15T00:38:35;5.50;;;2.95;;
17253;SDS011;32542;52.832;13.816;2023-04-15T00:41:39;4.85;;;2.78;;
17253;SDS011;32542;52.832;13.816;2023-04-15T00:44:42;4.68;;;3.00;;
17253;SDS011;32542;52.832;13.816;2023-04-15T00:47:45;5.60;;;2.85;;
17253;SDS011;32542;52.832;13.816;2023-04-15T00:50:48;6.50;;;3.10;;
17253;SDS011;32542;52.832;13.816;2023-04-15T00:53:53;3.88;;;2.65;;
17253;SDS011;32542;52.832;13.816;2023-04-15T00:56:55;4.47;;;2.80;;
17253;SDS011;32542;52.832;13.816;2023-04-15T00:59:59;5.22;;;2.83;;
17253;SDS011;32542;52.832;13.816;2023-04-15T01:03:03;5.80;;;3.17;;
17253;SDS011;32542;52.832;13.816;2023-04-15T01:06:06;5.15;;;2.50;;
17253;SDS011;32542;52.832;13.816;2023-04-15T01:09:11;3.15;;;2.58;;
17253;SDS011;32542;52.832;13.816;2023-04-15T01:12:14;3.28;;;2.83;;
17253;SDS011;32542;52.832;13.816;2023-04-15T01:15:18;3.63;;;2.70;;
17253;SDS011;32542;52.832;13.816;2023-04-15T01:18:22;5.68;;;2.50;;
17253;SDS011;32542;52.832;13.816;2023-04-15T01:21:25;3.95;;;2.55;;
17253;SDS011;32542;52.832;13.816;2023-04-15T01:24:29;4.63;;;3.05;;
17253;SDS011;32542;52.832;13.816;2023-04-15T01:27:35;3.30;;;2.70;;
17253;SDS011;32542;52.832;13.816;2023-04-15T01:30:41;5.63;;;2.80;;
17253;SDS011;32542;52.832;13.816;2023-04-15T01:33:45;4.47;;;2.75;;
17253;SDS011;32542;52.832;13.816;2023-04-15T01:36:48;4.07;;;2.85;;
17253;SDS011;32542;52.832;13.816;2023-04-15T01:39:51;3.72;;;2.63;;
17253;SDS011;32542;52.832;13.816;2023-04-15T01:42:57;4.95;;;2.70;;
17253;SDS011;32542;52.832;13.816;2023-04-15T01:46:00;3.15;;;2.80;;
17253;SDS011;32542;52.832;13.816;2023-04-15T01:49:05;4.03;;;2.88;;
17253;SDS011;32542;52.832;13.816;2023-04-15T01:52:08;3.38;;;2.67;;
17253;SDS011;32542;52.832;13.816;2023-04-15T01:55:13;3.05;;;2.70;;
17253;SDS011;32542;52.832;13.816;2023-04-15T01:58:20;2.80;;;2.38;;
17253;SDS011;32542;52.832;13.816;2023-04-15T02:01:23;3.95;;;3.08;;
17253;SDS011;32542;52.832;13.816;2023-04-15T02:04:26;3.88;;;2.67;;
17253;SDS011;32542;52.832;13.816;2023-04-15T02:07:33;3.88;;;2.85;;
17253;SDS011;32542;52.832;13.816;2023-04-15T02:10:36;3.95;;;2.95;;
17253;SDS011;32542;52.832;13.816;2023-04-15T02:13:40;3.20;;;2.90;;
17253;SDS011;32542;52.832;13.816;2023-04-15T02:16:43;3.17;;;2.75;;
17253;SDS011;32542;52.832;13.816;2023-04-15T02:19:48;4.50;;;2.92;;
17253;SDS011;32542;52.832;13.816;2023-04-15T02:22:51;3.72;;;2.80;;
17253;SDS011;32542;52.832;13.816;2023-04-15T02:25:54;3.50;;;2.47;;
17253;SDS011;32542;52.832;13.816;2023-04-15T02:28:58;3.65;;;2.80;;
17253;SDS011;32542;52.832;13.816;2023-04-15T02:32:02;4.60;;;3.03;;
17253;SDS011;32542;52.832;13.816;2023-04-15T02:35:05;4.13;;;2.88;;
17253;SDS011;32542;52.832;13.816;2023-04-15T02:38:10;3.67;;;2.90;;
17253;SDS011;32542;52.832;13.816;2023-04-15T02:41:13;3.88;;;3.17;;
17253;SDS011;32542;52.832;13.816;2023-04-15T02:44:19;4.18;;;3.00;;
17253;SDS011;32542;52.832;13.816;2023-04-15T02:47:26;3.17;;;2.88;;
17253;SDS011;32542;52.832;13.816;2023-04-15T02:50:29;4.00;;;2.70;;
17253;SDS011;32542;52.832;13.816;2023-04-15T02:53:32;3.88;;;3.00;;
17253;SDS011;32542;52.832;13.816;2023-04-15T02:56:35;3.42;;;3.00;;
17253;SDS011;32542;52.832;13.816;2023-04-15T02:59:39;3.15;;;2.60;;
17253;SDS011;32542;52.832;13.816;2023-04-15T03:02:42;6.90;;;3.08;;
17253;SDS011;32542;52.832;13.816;2023-04-15T03:05:50;4.50;;;2.92;;
17253;SDS011;32542;52.832;13.816;2023-04-15T03:08:53;3.30;;;2.65;;
17253;SDS011;32542;52.832;13.816;2023-04-15T03:11:57;3.08;;;2.60;;
17253;SDS011;32542;52.832;13.816;2023-04-15T03:15:02;2.75;;;2.42;;
17253;SDS011;32542;52.832;13.816;2023-04-15T03:18:10;3.60;;;2.85;;
17253;SDS011;32542;52.832;13.816;2023-04-15T03:21:14;3.30;;;3.00;;
17253;SDS011;32542;52.832;13.816;2023-04-15T03:24:19;3.75;;;2.83;;
17253;SDS011;32542;52.832;13.816;2023-04-15T03:27:22;3.38;;;2.75;;
17253;SDS011;32542;52.832;13.816;2023-04-15T03:30:29;3.53;;;2.80;;
17253;SDS011;32542;52.832;13.816;2023-04-15T03:33:32;3.67;;;2.90;;
17253;SDS011;32542;52.832;13.816;2023-04-15T03:36:35;5.13;;;2.97;;
17253;SDS011;32542;52.832;13.816;2023-04-15T03:39:38;5.05;;;2.95;;
17253;SDS011;32542;52.832;13.816;2023-04-15T03:42:42;2.80;;;2.50;;
17253;SDS011;32542;52.832;13.816;2023-04-15T03:45:46;3.30;;;2.85;;
17253;SDS011;32542;52.832;13.816;2023-04-15T03:48:49;3.05;;;2.70;;
17253;SDS011;32542;52.832;13.816;2023-04-15T03:51:52;3.15;;;2.60;;
17253;SDS011;32542;52.832;13.816;2023-04-15T03:54:55;3.15;;;2.63;;
17253;SDS011;32542;52.832;13.816;2023-04-15T03:57:58;3.75;;;2.67;;
17253;SDS011;32542;52.832;13.816;2023-04-15T04:01:02;4.05;;;3.00;;
17253;SDS011;32542;52.832;13.816;2023-04-15T04:04:05;3.20;;;2.90;;
17253;SDS011;32542;52.832;13.816;2023-04-15T04:07:13;3.85;;;2.95;;
17253;SDS011;32542;52.832;13.816;2023-04-15T04:10:17;3.50;;;2.75;;
17253;SDS011;32542;52.832;13.816;2023-04-15T04:13:20;3.38;;;2.70;;
17253;SDS011;32542;52.832;13.816;2023-04-15T04:16:24;3.08;;;2.78;;
17253;SDS011;32542;52.832;13.816;2023-04-15T04:19:27;4.15;;;2.75;;
17253;SDS011;32542;52.832;13.816;2023-04-15T04:22:30;3.38;;;2.85;;
17253;SDS011;32542;52.832;13.816;2023-04-15T04:25:38;4.13;;;2.70;;
17253;SDS011;32542;52.832;13.816;2023-04-15T04:28:42;3.40;;;2.80;;
17253;SDS011;32542;52.832;13.816;2023-04-15T04:31:46;3.20;;;2.80;;
17253;SDS011;32542;52.832;13.816;2023-04-15T04:34:49;3.38;;;3.08;;
17253;SDS011;32542;52.832;13.816;2023-04-15T04:37:52;4.38;;;2.92;;
17253;SDS011;32542;52.832;13.816;2023-04-15T04:40:55;3.10;;;2.80;;
17253;SDS011;32542;52.832;13.816;2023-04-15T04:43:58;3.33;;;2.90;;
17253;SDS011;32542;52.832;13.816;2023-04-15T04:47:02;4.07;;;2.80;;
17253;SDS011;32542;52.832;13.816;2023-04-15T04:50:07;3.97;;;2.70;;
17253;SDS011;32542;52.832;13.816;2023-04-15T04:53:10;4.65;;;2.70;;
17253;SDS011;32542;52.832;13.816;2023-04-15T04:56:13;3.38;;;2.67;;
17253;SDS011;32542;52.832;13.816;2023-04-15T04:59:16;3.42;;;2.60;;
17253;SDS011;32542;52.832;13.816;2023-04-15T05:02:21;3.25;;;2.58;;
17253;SDS011;32542;52.832;13.816;2023-04-15T05:05:24;3.35;;;2.90;;
17253;SDS011;32542;52.832;13.816;2023-04-15T05:08:27;3.25;;;2.90;;
17253;SDS011;32542;52.832;13.816;2023-04-15T05:11:30;4.05;;;3.15;;
17253;SDS011;32542;52.832;13.816;2023-04-15T05:14:33;3.25;;;2.67;;
17253;SDS011;32542;52.832;13.816;2023-04-15T05:17:37;3.35;;;2.75;;
17253;SDS011;32542;52.832;13.816;2023-04-15T05:20:40;5.20;;;2.80;;
17253;SDS011;32542;52.832;13.816;2023-04-15T05:23:43;3.30;;;2.85;;
17253;SDS011;32542;52.832;13.816;2023-04-15T05:26:46;3.05;;;2.70;;
17253;SDS011;32542;52.832;13.816;2023-04-15T05:29:49;4.68;;;2.80;;
17253;SDS011;32542;52.832;13.816;2023-04-15T05:32:54;3.33;;;2.95;;
17253;SDS011;32542;52.832;13.816;2023-04-15T05:35:57;3.85;;;2.97;;
17253;SDS011;32542;52.832;13.816;2023-04-15T05:39:00;3.22;;;2.92;;
17253;SDS011;32542;52.832;13.816;2023-04-15T05:42:03;5.35;;;2.95;;
17253;SDS011;32542;52.832;13.816;2023-04-15T05:45:06;3.72;;;3.00;;
17253;SDS011;32542;52.832;13.816;2023-04-15T05:48:11;5.40;;;2.85;;
17253;SDS011;32542;52.832;13.816;2023-04-15T05:51:14;3.65;;;2.80;;
17253;SDS011;32542;52.832;13.816;2023-04-15T05:54:17;4.53;;;2.67;;
17253;SDS011;32542;52.832;13.816;2023-04-15T05:57:22;4.25;;;3.30;;
17253;SDS011;32542;52.832;13.816;2023-04-15T06:00:25;2.90;;;2.60;;
17253;SDS011;32542;52.832;13.816;2023-04-15T06:03:29;3.70;;;2.90;;
17253;SDS011;32542;52.832;13.816;2023-04-15T06:06:32;3.30;;;2.78;;
17253;SDS011;32542;52.832;13.816;2023-04-15T06:09:35;3.38;;;2.70;;
17253;SDS011;32542;52.832;13.816;2023-04-15T06:12:38;3.55;;;2.97;;
17253;SDS011;32542;52.832;13.816;2023-04-15T06:15:41;2.70;;;2.50;;
17253;SDS011;32542;52.832;13.816;2023-04-15T06:18:45;3.35;;;2.50;;
17253;SDS011;32542;52.832;13.816;2023-04-15T06:21:48;3.38;;;2.70;;
17253;SDS011;32542;52.832;13.816;2023-04-15T06:24:51;3.15;;;2.85;;
17253;SDS011;32542;52.832;13.816;2023-04-15T06:27:54;3.08;;;2.78;;
17253;SDS011;32542;52.832;13.816;2023-04-15T06:30:57;4.10;;;2.92;;
17253;SDS011;32542;52.832;13.816;2023-04-15T06:34:03;2.97;;;2.60;;
17253;SDS011;32542;52.832;13.816;2023-04-15T06:37:06;3.97;;;2.88;;
17253;SDS011;32542;52.832;13.816;2023-04-15T06:40:10;2.92;;;2.65;;
17253;SDS011;32542;52.832;13.816;2023-04-15T06:43:14;2.90;;;2.60;;
17253;SDS011;32542;52.832;13.816;2023-04-15T06:46:17;4.35;;;2.60;;
17253;SDS011;32542;52.832;13.816;2023-04-15T06:49:21;3.10;;;2.75;;
17253;SDS011;32542;52.832;13.816;2023-04-15T06:52:24;3.47;;;2.97;;
17253;SDS011;32542;52.832;13.816;2023-04-15T06:55:27;4.47;;;2.83;;
17253;SDS011;32542;52.832;13.816;2023-04-15T06:58:32;3.17;;;2.45;;
17253;SDS011;32542;52.832;13.816;2023-04-15T07:01:34;3.42;;;2.80;;
17253;SDS011;32542;52.832;13.816;2023-04-15T07:04:39;3.10;;;2.80;;
17253;SDS011;32542;52.832;13.816;2023-04-15T07:07:42;3.22;;;2.40;;
17253;SDS011;32542;52.832;13.816;2023-04-15T07:10:45;3.05;;;2.75;;
17253;SDS011;32542;52.832;13.816;2023-04-15T07:13:48;2.95;;;2.60;;
17253;SDS011;32542;52.832;13.816;2023-04-15T07:16:51;2.78;;;2.50;;
17253;SDS011;32542;52.832;13.816;2023-04-15T07:19:56;3.50;;;2.90;;
17253;SDS011;32542;52.832;13.816;2023-04-15T07:22:59;4.32;;;2.85;;
17253;SDS011;32542;52.832;13.816;2023-04-15T07:26:02;3.00;;;2.60;;
17253;SDS011;32542;52.832;13.816;2023-04-15T07:29:05;3.50;;;2.50;;
17253;SDS011;32542;52.832;13.816;2023-04-15T07:32:08;3.65;;;2.55;;
17253;SDS011;32542;52.832;13.816;2023-04-15T07:35:13;3.05;;;2.65;;
17253;SDS011;32542;52.832;13.816;2023-04-15T07:38:16;4.13;;;2.92;;
17253;SDS011;32542;52.832;13.816;2023-04-15T07:41:18;3.65;;;2.92;;
17253;SDS011;32542;52.832;13.816;2023-04-15T07:44:22;4.22;;;2.90;;
17253;SDS011;32542;52.832;13.816;2023-04-15T07:47:25;3.10;;;2.72;;
17253;SDS011;32542;52.832;13.816;2023-04-15T07:50:29;3.05;;;2.67;;
17253;SDS011;32542;52.832;13.816;2023-04-15T07:53:32;4.22;;;2.67;;
17253;SDS011;32542;52.832;13.816;2023-04-15T07:56:35;3.28;;;2.97;;
17253;SDS011;32542;52.832;13.816;2023-04-15T07:59:38;4.28;;;2.88;;
17253;SDS011;32542;52.832;13.816;2023-04-15T08:02:42;3.03;;;2.65;;
17253;SDS011;32542;52.832;13.816;2023-04-15T08:05:48;3.35;;;3.05;;
17253;SDS011;32542;52.832;13.816;2023-04-15T08:08:51;4.43;;;2.70;;
17253;SDS011;32542;52.832;13.816;2023-04-15T08:11:55;3.53;;;3.17;;
17253;SDS011;32542;52.832;13.816;2023-04-15T08:14:58;3.75;;;2.80;;
17253;SDS011;32542;52.832;13.816;2023-04-15T08:18:02;3.17;;;2.88;;
17253;SDS011;32542;52.832;13.816;2023-04-15T08:21:06;4.30;;;3.20;;
17253;SDS011;32542;52.832;13.816;2023-04-15T08:24:09;4.43;;;3.08;;
17253;SDS011;32542;52.832;13.816;2023-04-15T08:27:13;7.03;;;3.45;;
17253;SDS011;32542;52.832;13.816;2023-04-15T08:30:16;5.85;;;3.00;;
17253;SDS011;32542;52.832;13.816;2023-04-15T08:33:19;6.05;;;3.40;;
17253;SDS011;32542;52.832;13.816;2023-04-15T08:36:24;10.20;;;4.38;;
17253;SDS011;32542;52.832;13.816;2023-04-15T08:39:27;6.88;;;4.18;;
17253;SDS011;32542;52.832;13.816;2023-04-15T08:42:30;18.48;;;4.70;;
17253;SDS011;32542;52.832;13.816;2023-04-15T08:45:38;10.45;;;5.40;;
17253;SDS011;32542;52.832;13.816;2023-04-15T08:48:41;7.10;;;5.05;;
17253;SDS011;32542;52.832;13.816;2023-04-15T08:51:46;7.28;;;5.25;;
17253;SDS011;32542;52.832;13.816;2023-04-15T08:54:50;12.65;;;4.93;;
17253;SDS011;32542;52.832;13.816;2023-04-15T08:57:57;7.82;;;5.18;;
17253;SDS011;32542;52.832;13.816;2023-04-15T09:01:01;7.40;;;4.90;;
17253;SDS011;32542;52.832;13.816;2023-04-15T09:04:04;7.15;;;5.13;;
17253;SDS011;32542;52.832;13.816;2023-04-15T09:07:10;9.13;;;5.55;;
17253;SDS011;32542;52.832;13.816;2023-04-15T09:10:12;7.88;;;5.60;;
17253;SDS011;32542;52.832;13.816;2023-04-15T09:13:15;10.73;;;5.57;;
17253;SDS011;32542;52.832;13.816;2023-04-15T09:16:19;11.70;;;5.13;;
17253;SDS011;32542;52.832;13.816;2023-04-15T09:19:24;10.27;;;5.38;;
17253;SDS011;32542;52.832;13.816;2023-04-15T09:22:32;16.80;;;5.40;;
17253;SDS011;32542;52.832;13.816;2023-04-15T09:25:35;10.48;;;5.20;;
17253;SDS011;32542;52.832;13.816;2023-04-15T09:28:41;11.35;;;5.82;;
17253;SDS011;32542;52.832;13.816;2023-04-15T09:31:44;14.18;;;5.53;;
17253;SDS011;32542;52.832;13.816;2023-04-15T09:34:47;15.45;;;6.15;;
17253;SDS011;32542;52.832;13.816;2023-04-15T09:37:52;11.68;;;5.80;;
17253;SDS011;32542;52.832;13.816;2023-04-15T09:40:56;18.73;;;5.65;;
17253;SDS011;32542;52.832;13.816;2023-04-15T09:43:59;14.82;;;6.15;;
17253;SDS011;32542;52.832;13.816;2023-04-15T09:47:02;14.88;;;5.50;;
17253;SDS011;32542;52.832;13.816;2023-04-15T09:50:06;18.05;;;5.80;;
17253;SDS011;32542;52.832;13.816;2023-04-15T09:53:11;18.55;;;6.22;;
17253;SDS011;32542;52.832;13.816;2023-04-15T09:56:19;16.30;;;6.53;;
17253;SDS011;32542;52.832;13.816;2023-04-15T09:59:25;19.90;;;6.70;;
17253;SDS011;32542;52.832;13.816;2023-04-15T10:02:28;18.75;;;5.68;;
17253;SDS011;32542;52.832;13.816;2023-04-15T10:05:31;11.45;;;4.93;;
17253;SDS011;32542;52.832;13.816;2023-04-15T10:08:36;13.95;;;5.30;;
17253;SDS011;32542;52.832;13.816;2023-04-15T10:11:40;15.40;;;5.03;;
17253;SDS011;32542;52.832;13.816;2023-04-15T10:14:45;15.38;;;5.78;;
17253;SDS011;32542;52.832;13.816;2023-04-15T10:17:54;19.77;;;5.63;;
17253;SDS011;32542;52.832;13.816;2023-04-15T10:20:59;21.90;;;5.45;;
17253;SDS011;32542;52.832;13.816;2023-04-15T10:24:04;13.88;;;5.10;;
17253;SDS011;32542;52.832;13.816;2023-04-15T10:27:08;18.75;;;5.15;;
17253;SDS011;32542;52.832;13.816;2023-04-15T10:30:12;18.65;;;5.45;;
17253;SDS011;32542;52.832;13.816;2023-04-15T10:33:17;18.85;;;5.22;;
17253;SDS011;32542;52.832;13.816;2023-04-15T10:36:23;14.52;;;4.75;;
17253;SDS011;32542;52.832;13.816;2023-04-15T10:39:41;16.83;;;5.63;;
17253;SDS011;32542;52.832;13.816;2023-04-15T10:42:44;12.93;;;4.90;;
17253;SDS011;32542;52.832;13.816;2023-04-15T10:45:47;15.10;;;5.60;;
17253;SDS011;32542;52.832;13.816;2023-04-15T10:48:51;11.70;;;5.65;;
17253;SDS011;32542;52.832;13.816;2023-04-15T10:51:56;10.70;;;4.95;;
17253;SDS011;32542;52.832;13.816;2023-04-15T10:55:11;16.40;;;4.97;;
17253;SDS011;32542;52.832;13.816;2023-04-15T10:58:16;10.27;;;4.90;;
17253;SDS011;32542;52.832;13.816;2023-04-15T11:01:19;14.45;;;5.00;;
17253;SDS011;32542;52.832;13.816;2023-04-15T11:07:56;14.30;;;5.38;;
17253;SDS011;32542;52.832;13.816;2023-04-15T11:11:00;17.05;;;5.03;;
17253;SDS011;32542;52.832;13.816;2023-04-15T11:14:03;11.88;;;5.00;;
17253;SDS011;32542;52.832;13.816;2023-04-15T11:17:06;19.08;;;5.75;;
17253;SDS011;32542;52.832;13.816;2023-04-15T11:20:09;10.05;;;5.28;;
17253;SDS011;32542;52.832;13.816;2023-04-15T11:23:17;15.98;;;5.00;;
17253;SDS011;32542;52.832;13.816;2023-04-15T11:26:24;10.57;;;5.05;;
17253;SDS011;32542;52.832;13.816;2023-04-15T11:29:28;10.43;;;5.00;;
17253;SDS011;32542;52.832;13.816;2023-04-15T11:32:32;13.48;;;6.20;;
17253;SDS011;32542;52.832;13.816;2023-04-15T11:35:35;11.05;;;5.43;;
17253;SDS011;32542;52.832;13.816;2023-04-15T11:38:41;9.57;;;4.93;;
17253;SDS011;32542;52.832;13.816;2023-04-15T11:41:45;11.50;;;4.60;;
17253;SDS011;32542;52.832;13.816;2023-04-15T11:44:48;10.52;;;4.55;;
17253;SDS011;32542;52.832;13.816;2023-04-15T11:47:51;9.80;;;4.68;;
17253;SDS011;32542;52.832;13.816;2023-04-15T11:50:55;11.75;;;4.88;;
17253;SDS011;32542;52.832;13.816;2023-04-15T11:53:59;17.45;;;4.82;;
17253;SDS011;32542;52.832;13.816;2023-04-15T11:57:03;11.75;;;4.70;;
17253;SDS011;32542;52.832;13.816;2023-04-15T12:00:07;10.55;;;4.97;;
17253;SDS011;32542;52.832;13.816;2023-04-15T12:03:11;10.73;;;5.10;;
17253;SDS011;32542;52.832;13.816;2023-04-15T12:06:16;11.70;;;4.95;;
17253;SDS011;32542;52.832;13.816;2023-04-15T12:09:21;9.35;;;4.88;;
17253;SDS011;32542;52.832;13.816;2023-04-15T12:12:27;10.98;;;4.97;;
17253;SDS011;32542;52.832;13.816;2023-04-15T12:15:31;19.90;;;5.10;;
17253;SDS011;32542;52.832;13.816;2023-04-15T12:18:36;11.98;;;4.60;;
17253;SDS011;32542;52.832;13.816;2023-04-15T12:21:40;12.68;;;4.60;;
17253;SDS011;32542;52.832;13.816;2023-04-15T12:24:45;15.07;;;5.13;;
17253;SDS011;32542;52.832;13.816;2023-04-15T12:27:51;11.13;;;4.88;;
17253;SDS011;32542;52.832;13.816;2023-04-15T12:30:55;17.80;;;4.90;;
17253;SDS011;32542;52.832;13.816;2023-04-15T12:33:59;16.90;;;4.70;;
17253;SDS011;32542;52.832;13.816;2023-04-15T12:37:03;12.57;;;5.05;;
17253;SDS011;32542;52.832;13.816;2023-04-15T12:40:08;13.68;;;5.30;;
17253;SDS011;32542;52.832;13.816;2023-04-15T12:43:13;8.20;;;4.47;;
17253;SDS011;32542;52.832;13.816;2023-04-15T12:46:16;11.77;;;4.85;;
17253;SDS011;32542;52.832;13.816;2023-04-15T12:49:19;8.25;;;4.47;;
17253;SDS011;32542;52.832;13.816;2023-04-15T12:52:22;12.68;;;5.47;;
17253;SDS011;32542;52.832;13.816;2023-04-15T12:55:25;10.95;;;5.38;;
17253;SDS011;32542;52.832;13.816;2023-04-15T12:58:29;10.90;;;4.40;;
17253;SDS011;32542;52.832;13.816;2023-04-15T13:01:32;11.43;;;4.97;;
17253;SDS011;32542;52.832;13.816;2023-04-15T13:04:35;11.75;;;4.82;;
17253;SDS011;32542;52.832;13.816;2023-04-15T13:07:38;9.93;;;4.95;;
17253;SDS011;32542;52.832;13.816;2023-04-15T13:10:41;9.27;;;5.00;;
17253;SDS011;32542;52.832;13.816;2023-04-15T13:13:46;11.55;;;4.95;;
17253;SDS011;32542;52.832;13.816;2023-04-15T13:16:49;11.38;;;4.65;;
17253;SDS011;32542;52.832;13.816;2023-04-15T13:19:52;12.75;;;4.75;;
17253;SDS011;32542;52.832;13.816;2023-04-15T13:22:55;11.07;;;4.97;;
17253;SDS011;32542;52.832;13.816;2023-04-15T13:25:58;11.00;;;5.13;;
17253;SDS011;32542;52.832;13.816;2023-04-15T13:29:02;8.63;;;4.60;;
17253;SDS011;32542;52.832;13.816;2023-04-15T13:32:05;9.77;;;4.72;;
17253;SDS011;32542;52.832;13.816;2023-04-15T13:35:08;13.75;;;4.88;;
17253;SDS011;32542;52.832;13.816;2023-04-15T13:38:11;9.40;;;4.72;;
17253;SDS011;32542;52.832;13.816;2023-04-15T13:41:14;12.00;;;4.60;;
17253;SDS011;32542;52.832;13.816;2023-04-15T13:44:18;8.73;;;4.55;;
17253;SDS011;32542;52.832;13.816;2023-04-15T13:47:22;10.48;;;4.38;;
17253;SDS011;32542;52.832;13.816;2023-04-15T13:50:26;8.15;;;4.50;;
17253;SDS011;32542;52.832;13.816;2023-04-15T13:53:29;8.43;;;4.60;;
17253;SDS011;32542;52.832;13.816;2023-04-15T13:56:39;10.75;;;5.10;;
17253;SDS011;32542;52.832;13.816;2023-04-15T13:59:43;7.85;;;5.10;;
17253;SDS011;32542;52.832;13.816;2023-04-15T14:02:46;13.90;;;4.40;;
17253;SDS011;32542;52.832;13.816;2023-04-15T14:05:50;10.68;;;4.93;;
17253;SDS011;32542;52.832;13.816;2023-04-15T14:08:56;10.27;;;5.25;;
17253;SDS011;32542;52.832;13.816;2023-04-15T14:11:59;11.23;;;4.70;;
17253;SDS011;32542;52.832;13.816;2023-04-15T14:15:04;7.38;;;4.57;;
17253;SDS011;32542;52.832;13.816;2023-04-15T14:18:08;11.38;;;4.63;;
17253;SDS011;32542;52.832;13.816;2023-04-15T14:21:11;10.98;;;4.78;;
17253;SDS011;32542;52.832;13.816;2023-04-15T14:24:14;6.78;;;4.13;;
17253;SDS011;32542;52.832;13.816;2023-04-15T14:27:17;6.75;;;4.32;;
17253;SDS011;32542;52.832;13.816;2023-04-15T14:30:21;9.15;;;4.78;;
17253;SDS011;32542;52.832;13.816;2023-04-15T14:33:24;10.52;;;4.68;;
17253;SDS011;32542;52.832;13.816;2023-04-15T14:36:27;9.43;;;4.97;;
17253;SDS011;32542;52.832;13.816;2023-04-15T14:39:30;10.07;;;4.32;;
17253;SDS011;32542;52.832;13.816;2023-04-15T14:42:33;17.30;;;4.47;;
17253;SDS011;32542;52.832;13.816;2023-04-15T14:45:37;10.50;;;4.28;;
17253;SDS011;32542;52.832;13.816;2023-04-15T14:48:44;17.50;;;5.55;;
17253;SDS011;32542;52.832;13.816;2023-04-15T14:51:47;16.00;;;4.60;;
17253;SDS011;32542;52.832;13.816;2023-04-15T14:54:51;8.57;;;4.95;;
17253;SDS011;32542;52.832;13.816;2023-04-15T14:57:53;8.95;;;4.90;;
17253;SDS011;32542;52.832;13.816;2023-04-15T15:00:58;14.25;;;7.13;;
17253;SDS011;32542;52.832;13.816;2023-04-15T15:04:02;13.27;;;8.07;;
17253;SDS011;32542;52.832;13.816;2023-04-15T15:07:05;15.88;;;7.40;;
17253;SDS011;32542;52.832;13.816;2023-04-15T15:10:08;21.60;;;7.40;;
17253;SDS011;32542;52.832;13.816;2023-04-15T15:13:11;13.80;;;6.97;;
17253;SDS011;32542;52.832;13.816;2023-04-15T15:16:16;15.30;;;6.22;;
17253;SDS011;32542;52.832;13.816;2023-04-15T15:19:19;17.40;;;6.50;;
17253;SDS011;32542;52.832;13.816;2023-04-15T15:22:22;12.73;;;6.55;;
17253;SDS011;32542;52.832;13.816;2023-04-15T15:25:26;10.30;;;6.15;;
17253;SDS011;32542;52.832;13.816;2023-04-15T15:28:29;15.13;;;5.80;;
17253;SDS011;32542;52.832;13.816;2023-04-15T15:35:04;9.45;;;5.30;;
17253;SDS011;32542;52.832;13.816;2023-04-15T15:38:08;11.43;;;5.70;;
17253;SDS011;32542;52.832;13.816;2023-04-15T15:41:13;7.47;;;5.40;;
17253;SDS011;32542;52.832;13.816;2023-04-15T15:44:16;8.55;;;5.00;;
17253;SDS011;32542;52.832;13.816;2023-04-15T15:47:21;15.10;;;6.07;;
17253;SDS011;32542;52.832;13.816;2023-04-15T15:50:24;8.40;;;4.80;;
17253;SDS011;32542;52.832;13.816;2023-04-15T15:53:27;9.77;;;4.70;;
17253;SDS011;32542;52.832;13.816;2023-04-15T15:56:30;11.70;;;4.80;;
17253;SDS011;32542;52.832;13.816;2023-04-15T15:59:33;6.75;;;4.60;;
17253;SDS011;32542;52.832;13.816;2023-04-15T16:02:38;11.73;;;4.55;;
17253;SDS011;32542;52.832;13.816;2023-04-15T16:06:01;13.63;;;4.50;;
17253;SDS011;32542;52.832;13.816;2023-04-15T16:09:05;17.13;;;4.50;;
17253;SDS011;32542;52.832;13.816;2023-04-15T16:12:08;7.53;;;4.72;;
17253;SDS011;32542;52.832;13.816;2023-04-15T16:15:11;10.93;;;5.47;;
17253;SDS011;32542;52.832;13.816;2023-04-15T16:18:15;9.02;;;4.05;;
17253;SDS011;32542;52.832;13.816;2023-04-15T16:21:18;10.00;;;4.15;;
17253;SDS011;32542;52.832;13.816;2023-04-15T16:24:21;12.70;;;4.60;;
17253;SDS011;32542;52.832;13.816;2023-04-15T16:27:25;9.60;;;4.30;;
17253;SDS011;32542;52.832;13.816;2023-04-15T16:30:28;8.18;;;3.70;;
17253;SDS011;32542;52.832;13.816;2023-04-15T16:33:32;4.85;;;4.05;;
17253;SDS011;32542;52.832;13.816;2023-04-15T16:36:35;7.57;;;4.53;;
17253;SDS011;32542;52.832;13.816;2023-04-15T16:39:40;9.02;;;3.83;;
17253;SDS011;32542;52.832;13.816;2023-04-15T16:42:43;9.77;;;4.03;;
17253;SDS011;32542;52.832;13.816;2023-04-15T16:45:47;5.82;;;3.80;;
17253;SDS011;32542;52.832;13.816;2023-04-15T16:48:53;13.93;;;4.15;;
17253;SDS011;32542;52.832;13.816;2023-04-15T16:51:56;10.13;;;3.97;;
17253;SDS011;32542;52.832;13.816;2023-04-15T16:54:59;6.55;;;3.85;;
17253;SDS011;32542;52.832;13.816;2023-04-15T16:58:02;6.80;;;3.70;;
17253;SDS011;32542;52.832;13.816;2023-04-15T17:01:08;7.75;;;3.85;;
17253;SDS011;32542;52.832;13.816;2023-04-15T17:04:12;8.95;;;3.70;;
17253;SDS011;32542;52.832;13.816;2023-04-15T17:07:16;8.65;;;3.55;;
17253;SDS011;32542;52.832;13.816;2023-04-15T17:10:19;10.82;;;3.38;;
17253;SDS011;32542;52.832;13.816;2023-04-15T17:13:22;6.00;;;3.42;;
17253;SDS011;32542;52.832;13.816;2023-04-15T17:16:25;10.90;;;3.80;;
17253;SDS011;32542;52.832;13.816;2023-04-15T17:19:29;12.25;;;3.88;;
17253;SDS011;32542;52.832;13.816;2023-04-15T17:22:32;7.15;;;3.20;;
17253;SDS011;32542;52.832;13.816;2023-04-15T17:25:35;6.40;;;4.00;;
17253;SDS011;32542;52.832;13.816;2023-04-15T17:28:38;8.93;;;3.80;;
17253;SDS011;32542;52.832;13.816;2023-04-15T17:31:41;6.20;;;3.53;;
17253;SDS011;32542;52.832;13.816;2023-04-15T17:34:46;7.45;;;3.42;;
17253;SDS011;32542;52.832;13.816;2023-04-15T17:37:51;5.93;;;3.08;;
17253;SDS011;32542;52.832;13.816;2023-04-15T17:40:54;5.07;;;3.70;;
17253;SDS011;32542;52.832;13.816;2023-04-15T17:43:57;7.57;;;3.72;;
17253;SDS011;32542;52.832;13.816;2023-04-15T17:47:00;7.25;;;3.58;;
17253;SDS011;32542;52.832;13.816;2023-04-15T17:50:05;6.63;;;3.55;;
17253;SDS011;32542;52.832;13.816;2023-04-15T17:53:09;8.40;;;3.63;;
17253;SDS011;32542;52.832;13.816;2023-04-15T17:56:12;4.78;;;3.35;;
17253;SDS011;32542;52.832;13.816;2023-04-15T17:59:15;11.18;;;4.35;;
17253;SDS011;32542;52.832;13.816;2023-04-15T18:02:18;9.32;;;3.53;;
17253;SDS011;32542;52.832;13.816;2023-04-15T18:05:22;7.22;;;3.67;;
17253;SDS011;32542;52.832;13.816;2023-04-15T18:08:26;6.93;;;3.67;;
17253;SDS011;32542;52.832;13.816;2023-04-15T18:11:29;5.60;;;3.30;;
17253;SDS011;32542;52.832;13.816;2023-04-15T18:14:33;5.88;;;2.97;;